Terminal Aerodrome Forecast
Issued by NWS Grand Rapids, MI

Home | Current Version | Previous Version | Text Only | Print | Product List | Glossary On
Versions: 1 2 3 4 5 6 7 8 9 10 11 12 13 14 15 16 17 18 19
000
FTUS43 KGRR 262124 AAA
TAFGRR
TAF AMD
KGRR 262124Z 2621/2718 29011KT P6SM BKN250
     FM270000 24005KT P6SM BKN250
     FM270900 27008KT P6SM VCSH BKN080
     FM271200 32012KT P6SM VCSH BKN040=

USA.gov is the U.S. government's official web portal to all federal, state and local government web resources and services.